createdAt,value
2022-10-29T00:00:50.551Z,58.20
2022-10-29T00:03:17.564Z,50.17
2022-10-29T00:05:44.245Z,54.58
2022-10-29T00:08:10.811Z,50.70
2022-10-29T00:10:37.429Z,48.33
2022-10-29T00:13:04.442Z,41.35
2022-10-29T00:15:31.093Z,39.47
2022-10-29T00:17:58.143Z,45.85
2022-10-29T00:20:25.062Z,44.05
2022-10-29T00:22:55.331Z,55.60
2022-10-29T00:25:22.372Z,43.40
2022-10-29T00:27:49.076Z,40.45
2022-10-29T00:30:16.040Z,42.88
2022-10-29T00:32:42.649Z,32.53
2022-10-29T00:35:09.532Z,33.45
2022-10-29T00:37:36.279Z,36.58
2022-10-29T00:40:03.808Z,29.60
2022-10-29T00:42:30.427Z,33.00
2022-10-29T00:44:57.038Z,29.25
2022-10-29T00:47:36.487Z,36.28
2022-10-29T00:50:09.499Z,30.33
2022-10-29T00:52:41.075Z,39.13
2022-10-29T00:55:10.743Z,40.75
2022-10-29T00:57:41.263Z,40.15
2022-10-29T01:00:08.564Z,30.25
2022-10-29T01:02:38.375Z,38.88
2022-10-29T01:05:06.298Z,31.70
2022-10-29T01:07:33.103Z,31.75
2022-10-29T01:09:59.717Z,32.35
2022-10-29T01:12:36.610Z,30.25
2022-10-29T01:15:33.644Z,31.15
2022-10-29T01:18:00.179Z,33.05
2022-10-29T01:20:41.813Z,30.80
2022-10-29T01:23:17.213Z,35.80
2022-10-29T01:26:14.811Z,35.28
2022-10-29T01:29:00.148Z,36.58
2022-10-29T01:31:40.297Z,35.65
2022-10-29T01:34:21.411Z,38.13
2022-10-29T01:37:20.271Z,34.27
2022-10-29T01:39:55.175Z,34.35
2022-10-29T01:42:29.855Z,35.17
2022-10-29T01:45:13.563Z,40.88
2022-10-29T01:47:48.735Z,36.38
2022-10-29T01:50:21.267Z,34.38
2022-10-29T01:52:49.452Z,30.25
2022-10-29T01:55:19.522Z,26.50
2022-10-29T01:57:46.129Z,36.67
2022-10-29T02:00:16.271Z,37.05
2022-10-29T02:02:48.079Z,27.83
2022-10-29T02:05:33.301Z,32.70
2022-10-29T02:08:08.959Z,25.27
2022-10-29T02:11:09.214Z,24.48
2022-10-29T02:13:44.402Z,31.08
2022-10-29T02:16:12.021Z,29.05
2022-10-29T02:18:47.741Z,31.52
2022-10-29T02:21:18.312Z,31.55
2022-10-29T02:23:45.195Z,30.42
2022-10-29T02:26:12.535Z,29.25
2022-10-29T02:28:39.392Z,29.13
2022-10-29T02:31:06.170Z,32.00
2022-10-29T02:33:32.836Z,32.42
2022-10-29T02:35:59.406Z,26.45
2022-10-29T02:38:25.931Z,26.90
2022-10-29T02:40:52.836Z,30.45
2022-10-29T02:45:51.094Z,30.60
2022-10-29T02:48:17.727Z,37.03
2022-10-29T02:50:44.345Z,33.33
2022-10-29T02:53:10.939Z,40.72
2022-10-29T02:55:37.481Z,35.92
2022-10-29T02:58:04.049Z,41.53
2022-10-29T03:00:30.592Z,48.60
2022-10-29T03:02:57.389Z,44.38
2022-10-29T03:05:24.303Z,45.05
2022-10-29T03:07:50.882Z,50.35
2022-10-29T03:10:17.576Z,49.88
2022-10-29T03:12:44.159Z,52.03
2022-10-29T03:15:10.890Z,54.35
2022-10-29T03:17:37.517Z,60.40
2022-10-29T03:20:04.565Z,62.35
2022-10-29T03:22:31.110Z,77.10
2022-10-29T03:24:57.765Z,67.90
2022-10-29T03:27:24.378Z,74.38
2022-10-29T03:29:51.015Z,86.22
2022-10-29T03:32:17.652Z,76.13
2022-10-29T03:34:44.293Z,58.47
2022-10-29T03:37:10.854Z,74.07
2022-10-29T03:39:37.423Z,77.38
2022-10-29T03:42:04.117Z,67.63
2022-10-29T03:44:31.183Z,72.97
2022-10-29T03:46:57.801Z,55.28
2022-10-29T03:49:24.356Z,65.13
2022-10-29T03:51:50.952Z,58.25
2022-10-29T03:54:17.502Z,55.92
2022-10-29T03:56:44.085Z,61.75
2022-10-29T04:01:42.365Z,66.32
2022-10-29T04:04:10.176Z,64.10
2022-10-29T04:06:36.722Z,56.08
2022-10-29T04:09:03.821Z,52.60
2022-10-29T04:11:30.431Z,68.95
2022-10-29T04:13:58.605Z,49.67
2022-10-29T04:16:25.315Z,53.15
2022-10-29T04:18:52.122Z,60.25
2022-10-29T04:29:39.486Z,47.10
2022-10-29T04:32:06.071Z,53.53
2022-10-29T04:34:32.711Z,43.00
2022-10-29T04:36:59.300Z,40.25
2022-10-29T04:39:25.909Z,45.53
2022-10-29T04:41:52.470Z,70.63
2022-10-29T04:44:20.126Z,63.72
2022-10-29T04:46:46.861Z,55.75
2022-10-29T04:49:13.571Z,63.90
2022-10-29T04:51:40.177Z,57.00
2022-10-29T04:54:06.833Z,58.33
2022-10-29T04:56:33.518Z,52.65
2022-10-29T04:59:00.104Z,56.95
2022-10-29T05:01:27.031Z,59.47
2022-10-29T05:03:57.149Z,56.80
2022-10-29T05:06:26.621Z,49.72
2022-10-29T05:08:53.212Z,55.72
2022-10-29T05:11:19.788Z,47.75
2022-10-29T05:13:46.538Z,52.72
2022-10-29T05:16:13.261Z,49.25
2022-10-29T05:18:39.973Z,56.53
2022-10-29T05:21:06.995Z,45.50
2022-10-29T05:23:33.583Z,40.60
2022-10-29T05:26:00.132Z,45.38
2022-10-29T05:28:26.770Z,39.17
2022-10-29T05:30:54.340Z,36.53
2022-10-29T05:33:23.482Z,46.13
2022-10-29T05:35:50.568Z,40.63
2022-10-29T05:38:17.455Z,46.25
2022-10-29T05:40:45.217Z,50.88
2022-10-29T05:43:16.738Z,51.63
2022-10-29T05:45:43.984Z,42.17
2022-10-29T05:50:43.737Z,44.53
2022-10-29T05:53:13.115Z,44.92
2022-10-29T05:55:42.348Z,47.30
2022-10-29T05:58:13.564Z,47.47
2022-10-29T06:00:43.338Z,42.15
2022-10-29T06:03:18.141Z,48.25
2022-10-29T06:05:46.865Z,46.95
2022-10-29T06:08:13.585Z,58.25
2022-10-29T06:10:40.712Z,52.97
2022-10-29T06:13:12.079Z,80.57
2022-10-29T06:15:38.834Z,75.97
2022-10-29T06:18:05.472Z,55.70
2022-10-29T06:20:32.327Z,72.72
2022-10-29T06:22:59.862Z,75.15
2022-10-29T06:25:27.658Z,69.75
2022-10-29T06:28:04.783Z,74.10
2022-10-29T06:30:33.123Z,78.95
2022-10-29T06:33:00.465Z,76.97
2022-10-29T06:35:28.002Z,78.90
2022-10-29T06:37:55.425Z,71.50
2022-10-29T06:40:23.113Z,89.82
2022-10-29T06:42:49.798Z,88.90
2022-10-29T06:45:17.265Z,71.05
2022-10-29T06:47:45.547Z,68.05
2022-10-29T06:50:13.612Z,71.93
2022-10-29T06:52:40.314Z,78.90
2022-10-29T06:55:08.102Z,74.80
2022-10-29T06:57:34.695Z,79.00
2022-10-29T07:00:05.638Z,76.10
2022-10-29T07:02:35.571Z,62.28
2022-10-29T07:05:02.288Z,79.10
2022-10-29T07:07:29.721Z,78.40
2022-10-29T07:09:56.582Z,72.25
2022-10-29T07:12:23.218Z,68.65
2022-10-29T07:14:49.766Z,63.65
2022-10-29T07:17:16.336Z,83.47
2022-10-29T07:19:43.159Z,90.35
2022-10-29T07:22:09.703Z,96.72
2022-10-29T07:24:36.297Z,79.03
2022-10-29T07:27:03.038Z,83.03
2022-10-29T07:29:29.666Z,85.60
2022-10-29T07:31:56.300Z,73.35
2022-10-29T07:34:22.909Z,80.25
2022-10-29T07:36:49.589Z,82.78
2022-10-29T07:39:18.711Z,88.95
2022-10-29T07:41:45.323Z,79.20
2022-10-29T07:44:12.036Z,80.72
2022-10-29T07:46:38.767Z,83.43
2022-10-29T07:49:05.383Z,88.22
2022-10-29T07:51:32.076Z,81.15
2022-10-29T07:53:58.950Z,90.38
2022-10-29T07:56:26.158Z,74.75
2022-10-29T07:58:52.726Z,84.20
2022-10-29T08:01:19.480Z,74.38
2022-10-29T08:03:46.206Z,73.88
2022-10-29T08:06:12.811Z,59.53
2022-10-29T08:08:39.373Z,63.42
2022-10-29T08:11:07.108Z,68.88
2022-10-29T08:13:34.151Z,69.78
2022-10-29T08:16:00.804Z,57.42
2022-10-29T08:18:27.590Z,58.45
2022-10-29T08:20:54.239Z,62.58
2022-10-29T08:23:20.910Z,77.47
2022-10-29T08:25:47.616Z,73.70
2022-10-29T08:28:16.196Z,58.08
2022-10-29T08:30:46.349Z,70.40
2022-10-29T08:33:12.971Z,56.35
2022-10-29T08:35:39.574Z,70.05
2022-10-29T08:38:06.671Z,69.75
2022-10-29T08:41:01.052Z,69.93
2022-10-29T08:43:33.576Z,67.47
2022-10-29T08:46:00.677Z,62.03
2022-10-29T08:48:44.456Z,67.20
2022-10-29T08:51:19.150Z,58.33
2022-10-29T08:53:58.657Z,65.85
2022-10-29T08:56:40.305Z,64.03
2022-10-29T08:59:16.885Z,65.18
2022-10-29T09:01:44.541Z,51.58
2022-10-29T09:04:35.468Z,61.42
2022-10-29T09:07:39.240Z,55.25
2022-10-29T09:10:11.629Z,64.80
2022-10-29T09:12:51.793Z,59.55
2022-10-29T09:15:38.950Z,58.55
2022-10-29T09:18:11.781Z,46.45
2022-10-29T09:20:44.356Z,47.45
2022-10-29T09:23:21.088Z,44.03
2022-10-29T09:25:57.165Z,44.80
2022-10-29T09:28:36.899Z,46.92
2022-10-29T09:31:28.345Z,50.92
2022-10-29T09:34:02.771Z,43.05
2022-10-29T09:36:31.036Z,35.38
2022-10-29T09:39:02.613Z,48.90
2022-10-29T09:41:34.715Z,39.80
2022-10-29T09:44:08.048Z,52.20
2022-10-29T09:46:43.419Z,40.08
2022-10-29T09:49:28.523Z,46.65
2022-10-29T09:52:06.802Z,49.65
2022-10-29T09:54:34.770Z,44.58
2022-10-29T09:57:03.329Z,37.95
2022-10-29T09:59:36.807Z,42.42
2022-10-29T10:02:20.157Z,34.30
2022-10-29T10:04:49.350Z,37.03
2022-10-29T10:07:22.111Z,44.30
2022-10-29T10:10:03.936Z,39.03
2022-10-29T10:15:25.759Z,34.35
2022-10-29T10:18:02.656Z,34.28
2022-10-29T10:20:33.711Z,34.72
2022-10-29T10:23:00.605Z,37.28
2022-10-29T10:25:33.155Z,40.03
2022-10-29T10:28:04.111Z,32.90
2022-10-29T10:30:30.720Z,48.80
2022-10-29T10:33:12.347Z,49.03
2022-10-29T10:38:09.930Z,52.65
2022-10-29T10:40:37.319Z,44.95
2022-10-29T10:43:06.936Z,48.22
2022-10-29T10:48:09.851Z,43.25
2022-10-29T10:50:37.720Z,51.03
2022-10-29T10:53:20.427Z,41.95
2022-10-29T10:55:57.960Z,41.95
2022-10-29T10:58:35.395Z,46.92
2022-10-29T11:01:16.499Z,48.97
2022-10-29T11:03:46.409Z,44.65
2022-10-29T11:06:33.920Z,45.75
2022-10-29T11:09:21.519Z,39.05
2022-10-29T11:12:00.332Z,40.40
2022-10-29T11:14:43.098Z,38.78
2022-10-29T11:17:37.148Z,41.58
2022-10-29T11:20:15.115Z,31.63
2022-10-29T11:23:19.454Z,38.60
2022-10-29T11:25:56.493Z,42.97
2022-10-29T11:28:23.086Z,44.22
2022-10-29T11:30:59.972Z,37.75
2022-10-29T11:33:35.559Z,36.17
2022-10-29T11:36:11.780Z,32.63
2022-10-29T11:38:50.710Z,37.42
2022-10-29T11:41:22.303Z,25.63
2022-10-29T11:43:49.436Z,31.83
2022-10-29T11:46:39.331Z,29.23
2022-10-29T11:49:24.714Z,27.25
2022-10-29T11:52:13.615Z,27.40
2022-10-29T11:55:15.633Z,23.65
2022-10-29T11:58:01.002Z,26.83
2022-10-29T12:00:35.426Z,28.58
2022-10-29T12:03:54.340Z,28.75
2022-10-29T12:06:39.692Z,31.88
2022-10-29T12:09:41.883Z,29.95
2022-10-29T12:12:29.582Z,24.02
2022-10-29T12:15:06.621Z,27.27
2022-10-29T12:18:02.219Z,28.55
2022-10-29T12:21:18.877Z,25.48
2022-10-29T12:24:05.686Z,18.08
2022-10-29T12:26:34.910Z,28.33
2022-10-29T12:29:37.541Z,22.50
2022-10-29T12:32:14.303Z,21.60
2022-10-29T12:35:06.511Z,19.05
2022-10-29T12:38:06.907Z,17.95
2022-10-29T12:40:38.306Z,18.95
2022-10-29T12:43:11.535Z,22.30
2022-10-29T12:46:14.236Z,20.98
2022-10-29T12:48:58.372Z,20.23
2022-10-29T12:51:32.931Z,22.17
2022-10-29T12:54:02.425Z,23.50
2022-10-29T12:56:30.984Z,18.77
2022-10-29T12:58:59.821Z,22.08
2022-10-29T13:01:30.272Z,16.80
2022-10-29T13:04:26.877Z,23.92
2022-10-29T13:07:23.051Z,18.00
2022-10-29T13:10:21.969Z,16.13
2022-10-29T13:13:16.532Z,19.55
2022-10-29T13:15:50.000Z,13.82
2022-10-29T13:18:44.511Z,13.93
2022-10-29T13:21:11.274Z,17.95
2022-10-29T13:23:38.094Z,18.70
2022-10-29T13:26:06.937Z,20.63
2022-10-29T13:28:36.233Z,20.65
2022-10-29T13:31:02.766Z,22.48
2022-10-29T13:33:51.112Z,22.65
2022-10-29T13:36:17.938Z,19.23
2022-10-29T13:39:07.536Z,16.65
2022-10-29T13:41:44.211Z,17.27
2022-10-29T13:44:19.505Z,17.42
2022-10-29T13:47:02.051Z,15.30
2022-10-29T13:49:43.252Z,17.77
2022-10-29T13:52:09.792Z,17.55
2022-10-29T13:55:06.518Z,16.60
2022-10-29T13:57:59.250Z,17.42
2022-10-29T14:00:26.466Z,17.92
2022-10-29T14:03:02.175Z,13.85
2022-10-29T14:05:35.504Z,12.23
2022-10-29T14:08:20.716Z,12.95
2022-10-29T14:10:51.633Z,13.60
2022-10-29T14:13:46.731Z,17.73
2022-10-29T14:16:20.643Z,17.15
2022-10-29T14:18:49.058Z,13.80
2022-10-29T14:21:22.661Z,17.77
2022-10-29T14:24:01.950Z,21.80
2022-10-29T14:26:34.504Z,16.70
2022-10-29T14:29:13.290Z,16.88
2022-10-29T14:31:40.244Z,15.23
2022-10-29T14:34:14.194Z,16.30
2022-10-29T14:36:46.350Z,16.63
2022-10-29T14:39:28.732Z,17.83
2022-10-29T14:42:07.103Z,11.20
2022-10-29T14:44:34.622Z,17.58
2022-10-29T14:47:07.783Z,13.25
2022-10-29T14:49:40.746Z,13.00
2022-10-29T14:52:21.574Z,17.10
2022-10-29T14:54:50.690Z,19.80
2022-10-29T14:57:21.138Z,17.65
2022-10-29T14:59:52.526Z,22.63
2022-10-29T15:05:23.994Z,19.13
2022-10-29T15:07:50.813Z,23.70
2022-10-29T15:10:24.996Z,22.00
2022-10-29T15:12:53.124Z,20.17
2022-10-29T15:15:30.405Z,23.30
2022-10-29T15:18:05.880Z,23.35
2022-10-29T15:20:36.317Z,21.95
2022-10-29T15:23:03.995Z,27.83
2022-10-29T15:25:39.639Z,23.20
2022-10-29T15:28:12.315Z,22.52
2022-10-29T15:30:39.113Z,25.05
2022-10-29T15:33:14.600Z,27.30
2022-10-29T15:35:54.195Z,25.33
2022-10-29T15:38:29.949Z,23.17
2022-10-29T15:41:19.314Z,26.95
2022-10-29T15:43:55.112Z,25.98
2022-10-29T15:46:30.975Z,33.10
2022-10-29T15:48:57.908Z,25.98
2022-10-29T15:51:28.373Z,31.25
2022-10-29T15:53:56.312Z,27.05
2022-10-29T15:56:24.011Z,26.33
2022-10-29T15:58:52.405Z,28.05
2022-10-29T16:01:19.252Z,31.92
2022-10-29T16:03:46.002Z,25.95
2022-10-29T16:06:15.677Z,30.95
2022-10-29T16:08:47.682Z,30.92
2022-10-29T16:11:16.649Z,31.05
2022-10-29T16:13:43.500Z,40.05
2022-10-29T16:16:22.697Z,63.53
2022-10-29T16:18:49.546Z,93.97
2022-10-29T16:21:21.682Z,66.18
2022-10-29T16:23:49.083Z,69.50
2022-10-29T16:26:18.060Z,62.00
2022-10-29T16:28:44.791Z,62.03
2022-10-29T16:31:20.575Z,56.60
2022-10-29T16:33:49.075Z,110.63
2022-10-29T16:36:16.448Z,91.38
2022-10-29T16:38:43.971Z,67.72
2022-10-29T16:41:15.673Z,81.47
2022-10-29T16:43:43.352Z,65.97
2022-10-29T16:46:11.278Z,64.55
2022-10-29T16:48:38.341Z,54.20
2022-10-29T16:51:05.639Z,46.13
2022-10-29T16:53:32.613Z,46.00
2022-10-29T16:55:59.376Z,46.15
2022-10-29T16:58:26.762Z,38.42
2022-10-29T17:01:05.177Z,49.75
2022-10-29T17:03:33.245Z,44.58
2022-10-29T17:06:08.493Z,58.90
2022-10-29T17:08:36.271Z,54.58
2022-10-29T17:11:06.126Z,54.70
2022-10-29T17:13:34.544Z,56.25
2022-10-29T17:16:01.222Z,57.53
2022-10-29T17:18:27.891Z,53.72
2022-10-29T17:20:56.288Z,56.33
2022-10-29T17:23:23.206Z,62.78
2022-10-29T17:25:56.922Z,48.97
2022-10-29T17:28:25.103Z,55.58
2022-10-29T17:30:51.894Z,51.80
2022-10-29T17:33:19.298Z,61.42
2022-10-29T17:35:46.142Z,63.53
2022-10-29T17:38:12.859Z,47.35
2022-10-29T17:40:39.781Z,55.88
2022-10-29T17:43:06.460Z,51.17
2022-10-29T17:45:33.086Z,54.75
2022-10-29T17:48:00.151Z,57.17
2022-10-29T17:50:27.599Z,48.33
2022-10-29T17:52:55.023Z,58.47
2022-10-29T17:55:21.674Z,58.55
2022-10-29T17:57:48.427Z,66.60
2022-10-29T18:00:15.498Z,59.70
2022-10-29T18:02:42.370Z,62.63
2022-10-29T18:05:09.350Z,61.95
2022-10-29T18:07:36.018Z,71.68
2022-10-29T18:10:02.921Z,51.58
2022-10-29T18:12:29.512Z,64.60
2022-10-29T18:14:56.144Z,53.65
2022-10-29T18:17:22.753Z,59.78
2022-10-29T18:19:49.408Z,67.05
2022-10-29T18:22:16.344Z,68.28
2022-10-29T18:24:42.958Z,86.72
2022-10-29T18:27:09.608Z,143.07
2022-10-29T18:29:36.312Z,133.75
2022-10-29T18:32:02.902Z,146.48
2022-10-29T18:34:29.772Z,147.30
2022-10-29T18:36:56.462Z,138.40
2022-10-29T18:39:23.127Z,149.88
2022-10-29T18:41:49.839Z,148.07
2022-10-29T18:44:16.474Z,141.60
2022-10-29T18:46:43.074Z,153.13
2022-10-29T18:49:13.447Z,141.15
2022-10-29T18:51:40.288Z,158.55
2022-10-29T18:54:07.019Z,164.45
2022-10-29T18:56:33.661Z,165.68
2022-10-29T18:59:00.546Z,142.90
2022-10-29T19:01:32.180Z,159.13
2022-10-29T19:06:33.012Z,128.27
2022-10-29T19:09:01.193Z,123.65
2022-10-29T19:11:28.131Z,122.00
2022-10-29T19:13:57.017Z,114.78
2022-10-29T19:16:24.161Z,113.43
2022-10-29T19:18:59.008Z,105.03
2022-10-29T19:21:26.889Z,100.30
2022-10-29T19:24:03.667Z,106.32
2022-10-29T19:26:33.615Z,100.78
2022-10-29T19:29:02.078Z,101.70
2022-10-29T19:31:30.514Z,117.38
2022-10-29T19:33:59.852Z,119.78
2022-10-29T19:36:27.796Z,114.13
2022-10-29T19:38:54.926Z,115.22
2022-10-29T19:41:21.767Z,106.30
2022-10-29T19:43:48.774Z,119.05
2022-10-29T19:46:18.828Z,126.60
2022-10-29T19:48:53.019Z,118.50
2022-10-29T19:51:20.390Z,126.30
2022-10-29T19:53:47.183Z,126.47
2022-10-29T19:56:15.800Z,120.03
2022-10-29T19:58:42.800Z,131.35
2022-10-29T20:01:13.059Z,147.27
2022-10-29T20:03:39.852Z,134.38
2022-10-29T20:06:09.168Z,131.80
2022-10-29T20:08:38.753Z,130.95
2022-10-29T20:11:06.103Z,128.50
2022-10-29T20:13:32.856Z,127.47
2022-10-29T20:15:59.923Z,108.55
2022-10-29T20:18:26.480Z,103.82
2022-10-29T20:20:55.469Z,112.10
2022-10-29T20:23:23.323Z,103.88
2022-10-29T20:25:50.088Z,113.25
2022-10-29T20:28:16.781Z,104.60
2022-10-29T20:30:43.580Z,101.35
2022-10-29T20:33:10.302Z,80.50
2022-10-29T20:35:37.442Z,97.22
2022-10-29T20:38:04.591Z,92.00
2022-10-29T20:40:31.231Z,89.72
2022-10-29T20:42:57.900Z,94.10
2022-10-29T20:45:24.859Z,94.72
2022-10-29T20:47:51.450Z,111.22
2022-10-29T20:50:18.058Z,118.10
2022-10-29T20:52:54.494Z,103.80
2022-10-29T20:55:21.191Z,109.97
2022-10-29T20:57:47.818Z,122.50
2022-10-29T21:00:14.746Z,106.05
2022-10-29T21:02:41.375Z,98.50
2022-10-29T21:05:34.676Z,102.40
2022-10-29T21:08:01.706Z,105.63
2022-10-29T21:10:28.383Z,105.70
2022-10-29T21:12:55.447Z,96.97
2022-10-29T21:15:22.387Z,94.35
2022-10-29T21:17:48.984Z,108.78
2022-10-29T21:20:15.650Z,97.53
2022-10-29T21:22:42.223Z,104.15
2022-10-29T21:25:09.306Z,79.97
2022-10-29T21:27:35.995Z,98.03
2022-10-29T21:30:02.836Z,100.15
2022-10-29T21:32:29.438Z,96.30
2022-10-29T21:34:56.045Z,87.18
2022-10-29T21:37:22.612Z,93.53
2022-10-29T21:39:49.234Z,91.28
2022-10-29T21:42:15.808Z,95.05
2022-10-29T21:44:42.383Z,90.07
2022-10-29T21:47:08.993Z,80.45
2022-10-29T21:49:35.563Z,87.63
2022-10-29T21:52:02.148Z,93.55
2022-10-29T21:54:28.712Z,93.15
2022-10-29T21:56:55.291Z,87.57
2022-10-29T21:59:22.022Z,83.53
2022-10-29T22:01:48.737Z,86.43
2022-10-29T22:04:20.849Z,90.47
2022-10-29T22:06:47.680Z,86.70
2022-10-29T22:09:14.450Z,79.50
2022-10-29T22:11:41.048Z,75.18
2022-10-29T22:14:07.650Z,91.07
2022-10-29T22:16:34.249Z,81.30
2022-10-29T22:19:00.819Z,96.72
2022-10-29T22:21:27.409Z,95.13
2022-10-29T22:23:56.321Z,99.88
2022-10-29T22:26:28.820Z,87.93
2022-10-29T22:28:55.854Z,83.75
2022-10-29T22:31:23.896Z,91.57
2022-10-29T22:33:51.040Z,80.45
2022-10-29T22:36:19.996Z,83.22
2022-10-29T22:38:47.215Z,82.25
2022-10-29T22:41:15.945Z,89.32
2022-10-29T22:43:43.531Z,90.57
2022-10-29T22:46:12.447Z,94.38
2022-10-29T22:48:39.015Z,84.40
2022-10-29T22:51:05.726Z,92.13
2022-10-29T22:53:33.032Z,87.72
2022-10-29T22:56:00.796Z,67.82
2022-10-29T22:58:27.529Z,78.70
2022-10-29T23:01:12.799Z,70.90
2022-10-29T23:03:41.521Z,57.72
2022-10-29T23:06:10.656Z,75.07
2022-10-29T23:08:37.452Z,73.05
2022-10-29T23:11:08.960Z,71.80
2022-10-29T23:13:35.700Z,92.72
2022-10-29T23:16:02.451Z,80.15
2022-10-29T23:18:29.173Z,94.30
2022-10-29T23:21:03.076Z,76.80
2022-10-29T23:23:30.332Z,90.93
2022-10-29T23:26:01.376Z,87.60
2022-10-29T23:28:32.739Z,94.57
2022-10-29T23:31:01.788Z,87.28
2022-10-29T23:33:29.962Z,93.00
2022-10-29T23:36:00.776Z,89.90
2022-10-29T23:38:27.341Z,84.82
2022-10-29T23:40:53.977Z,98.25
2022-10-29T23:43:20.582Z,87.32
2022-10-29T23:45:47.141Z,94.03
2022-10-29T23:48:13.713Z,111.13
2022-10-29T23:50:40.557Z,95.53
2022-10-29T23:53:07.629Z,101.13
2022-10-29T23:55:34.880Z,95.28
2022-10-29T23:58:02.290Z,92.82
